Time;durP1;ratioP1;P1;durP2;ratioP2;P2;SDS_P1;SDS_P2;PMS_P1;PMS_P2;Temp;Humidity;BMP_temperature;BMP_pressure;BME280_temperature;BME280_humidity;BME280_pressure;Samples;Min_cycle;Max_cycle;Signal;HPM_P1;HPM_P2
2022/05/06 00:01:39;;;;;;;24.13;15.02;;;9.00;99.90;;;;;;5038868;28;20508;-71
2022/05/06 00:04:05;;;;;;;23.27;15.63;;;8.90;99.90;;;;;;5038419;28;20129;-71
2022/05/06 00:06:31;;;;;;;25.17;14.85;;;9.00;99.90;;;;;;5038424;28;20088;-71
2022/05/06 00:08:57;;;;;;;24.17;15.90;;;8.90;99.90;;;;;;5003996;28;20049;-71
2022/05/06 00:11:24;;;;;;;27.25;16.17;;;8.90;99.90;;;;;;5038110;28;20056;-72
2022/05/06 00:13:52;;;;;;;29.40;15.40;;;8.80;99.90;;;;;;5038154;28;20378;-71
2022/05/06 00:16:19;;;;;;;24.13;15.20;;;8.80;99.90;;;;;;5038772;28;20056;-71
2022/05/06 00:18:44;;;;;;;22.45;15.35;;;8.80;99.90;;;;;;5038418;28;20132;-71
2022/05/06 00:21:10;;;;;;;24.60;15.75;;;8.80;99.90;;;;;;5038843;28;20081;-71
2022/05/06 00:23:36;;;;;;;26.55;15.55;;;8.80;99.90;;;;;;5038126;28;20512;-71
2022/05/06 00:26:03;;;;;;;21.52;15.10;;;8.80;99.90;;;;;;5037822;28;20049;-71
2022/05/06 00:28:29;;;;;;;21.98;14.07;;;8.70;99.90;;;;;;5020397;28;20049;-72
2022/05/06 00:30:54;;;;;;;21.95;14.50;;;8.70;99.90;;;;;;5038173;28;20042;-72
2022/05/06 00:33:24;;;;;;;23.27;13.93;;;8.70;99.90;;;;;;5037715;28;20065;-71
2022/05/06 00:35:55;;;;;;;26.40;15.00;;;8.70;99.90;;;;;;5020713;28;20053;-70
2022/05/06 00:38:21;;;;;;;26.92;15.23;;;8.60;99.90;;;;;;5037745;28;20045;-71
2022/05/06 00:40:47;;;;;;;27.83;15.48;;;8.60;99.90;;;;;;5038133;28;20103;-74
2022/05/06 00:43:13;;;;;;;24.85;15.75;;;8.50;99.90;;;;;;5037696;28;20051;-71
2022/05/06 00:45:57;;;;;;;22.42;14.43;;;8.50;99.90;;;;;;5037724;28;20057;-71
2022/05/06 00:48:34;;;;;;;26.58;16.42;;;8.50;99.90;;;;;;5038147;28;20041;-71
2022/05/06 00:51:01;;;;;;;32.33;17.45;;;8.50;99.90;;;;;;5037226;28;20111;-70
2022/05/06 00:53:27;;;;;;;23.52;15.68;;;8.50;99.90;;;;;;5037789;28;20390;-71
2022/05/06 00:55:53;;;;;;;24.13;15.68;;;8.40;99.90;;;;;;5037512;28;20049;-70
2022/05/06 00:58:19;;;;;;;23.65;16.38;;;8.40;99.90;;;;;;5037391;28;20052;-70
2022/05/06 01:00:46;;;;;;;26.30;15.40;;;8.40;99.90;;;;;;5020228;28;20065;-71
2022/05/06 01:03:12;;;;;;;21.77;14.98;;;8.40;99.90;;;;;;5019688;28;20462;-71
2022/05/06 01:05:41;;;;;;;28.33;16.25;;;8.40;99.90;;;;;;5037400;28;20060;-70
2022/05/06 01:08:09;;;;;;;22.67;14.88;;;8.50;99.90;;;;;;5036036;28;20466;-71
2022/05/06 01:10:35;;;;;;;22.08;15.18;;;8.30;99.90;;;;;;5037873;28;20041;-70
2022/05/06 01:13:01;;;;;;;29.10;16.08;;;8.30;99.90;;;;;;5003008;28;20130;-70
2022/05/06 01:15:28;;;;;;;22.13;14.88;;;8.30;99.90;;;;;;5037160;28;20033;-70
2022/05/06 01:17:56;;;;;;;25.83;15.02;;;8.20;99.90;;;;;;5036890;28;20041;-70
2022/05/06 01:20:22;;;;;;;24.25;14.77;;;8.20;99.90;;;;;;5019515;28;20057;-71
2022/05/06 01:22:58;;;;;;;26.17;15.93;;;8.20;99.90;;;;;;5037140;28;20041;-70
2022/05/06 01:25:24;;;;;;;25.88;16.45;;;8.20;99.90;;;;;;5019919;28;20115;-71
2022/05/06 01:27:55;;;;;;;32.13;17.35;;;8.20;99.90;;;;;;5036960;28;20336;-71
2022/05/06 01:30:34;;;;;;;29.77;17.23;;;8.10;99.90;;;;;;5036741;28;20033;-71
2022/05/06 01:33:03;;;;;;;24.50;16.83;;;8.10;99.90;;;;;;5036675;28;20048;-71
2022/05/06 01:35:30;;;;;;;26.23;16.65;;;8.10;99.90;;;;;;5019649;28;20045;-71
2022/05/06 01:38:00;;;;;;;23.83;16.42;;;8.10;99.90;;;;;;5036806;28;20060;-70
2022/05/06 01:40:28;;;;;;;25.20;16.27;;;8.10;99.90;;;;;;5018683;28;20056;-70
2022/05/06 01:42:57;;;;;;;24.98;16.10;;;8.10;99.90;;;;;;5036793;28;20433;-71
2022/05/06 01:45:24;;;;;;;25.73;16.30;;;8.00;99.90;;;;;;5036306;28;20045;-71
2022/05/06 01:47:52;;;;;;;30.55;15.45;;;8.00;99.90;;;;;;5019291;28;20037;-70
2022/05/06 01:50:20;;;;;;;25.15;16.52;;;8.00;99.90;;;;;;5036313;28;20040;-71
2022/05/06 01:52:49;;;;;;;24.08;15.23;;;8.00;99.90;;;;;;5018834;28;20057;-70
2022/05/06 01:55:15;;;;;;;23.05;15.18;;;7.90;99.90;;;;;;5018944;28;20049;-71
2022/05/06 01:57:41;;;;;;;23.08;15.00;;;7.90;99.90;;;;;;5035867;28;20059;-71
2022/05/06 02:00:07;;;;;;;22.45;15.50;;;7.90;99.90;;;;;;5036249;28;20409;-71
2022/05/06 02:02:33;;;;;;;21.92;14.75;;;7.90;99.90;;;;;;5035927;28;20129;-71
2022/05/06 02:05:17;;;;;;;21.88;15.10;;;7.80;99.90;;;;;;5036145;28;20132;-71
2022/05/06 02:07:46;;;;;;;;;;;7.80;99.90;;;;;;5036668;28;20091;-72
2022/05/06 02:10:12;;;;;;;22.48;15.10;;;7.80;99.90;;;;;;5035922;28;19928;-71
2022/05/06 02:12:38;;;;;;;22.95;15.25;;;7.70;99.90;;;;;;5036251;28;20361;-71
2022/05/06 02:15:04;;;;;;;22.90;15.50;;;7.70;99.90;;;;;;5018342;28;20119;-70
2022/05/06 02:17:29;;;;;;;26.10;15.38;;;7.70;99.90;;;;;;5036117;28;20037;-71
2022/05/06 02:19:55;;;;;;;23.63;16.23;;;7.60;99.90;;;;;;5018546;28;20056;-72
2022/05/06 02:22:21;;;;;;;26.65;16.50;;;7.60;99.90;;;;;;5035884;28;20037;-70
2022/05/06 02:24:47;;;;;;;25.83;17.17;;;7.60;99.90;;;;;;5035492;28;20042;-70
2022/05/06 02:27:12;;;;;;;29.02;17.42;;;7.60;99.90;;;;;;5035775;28;20069;-71
2022/05/06 02:29:39;;;;;;;29.23;18.05;;;7.60;99.90;;;;;;5035847;28;20041;-71
2022/05/06 02:34:50;;;;;;;32.80;17.92;;;7.60;99.90;;;;;;5035815;28;20053;-70
2022/05/06 02:37:15;;;;;;;27.45;17.20;;;7.50;99.90;;;;;;5035573;28;20061;-70
2022/05/06 02:39:41;;;;;;;26.70;16.48;;;7.50;99.90;;;;;;5035373;28;20045;-72
2022/05/06 02:42:07;;;;;;;27.95;16.92;;;7.70;99.90;;;;;;5035365;28;20045;-70
2022/05/06 02:44:34;;;;;;;26.38;16.67;;;7.40;99.90;;;;;;5035208;28;20484;-70
2022/05/06 02:46:59;;;;;;;25.90;17.52;;;7.40;99.90;;;;;;5035475;28;20049;-71
2022/05/06 02:49:25;;;;;;;26.42;16.83;;;7.40;99.90;;;;;;5035503;28;20049;-71
2022/05/06 02:51:51;;;;;;;28.15;17.55;;;7.40;99.90;;;;;;5035192;28;20037;-71
2022/05/06 02:54:21;;;;;;;29.15;17.83;;;7.40;99.90;;;;;;5035978;28;20049;-71
2022/05/06 02:56:47;;;;;;;24.02;16.85;;;7.40;99.90;;;;;;5018306;28;20045;-71
2022/05/06 02:59:12;;;;;;;24.20;16.25;;;7.40;99.90;;;;;;5018388;28;20053;-71
2022/05/06 03:01:38;;;;;;;30.17;18.23;;;7.30;99.90;;;;;;5017821;28;20124;-70
2022/05/06 03:04:04;;;;;;;28.23;16.63;;;7.30;99.90;;;;;;5035213;28;20092;-71
2022/05/06 03:06:29;;;;;;;30.00;17.55;;;7.20;99.90;;;;;;5031552;28;20468;-71
2022/05/06 03:08:55;;;;;;;26.52;17.55;;;7.20;99.90;;;;;;5035154;28;20049;-71
2022/05/06 03:11:20;;;;;;;27.05;17.48;;;7.20;99.90;;;;;;5035475;28;20060;-71
2022/05/06 03:13:46;;;;;;;27.95;17.40;;;7.10;99.90;;;;;;5035137;28;20060;-71
2022/05/06 03:16:11;;;;;;;28.65;18.60;;;7.10;99.90;;;;;;5035142;28;20057;-71
2022/05/06 03:18:37;;;;;;;29.90;17.10;;;7.10;99.90;;;;;;5034973;28;20564;-70
2022/05/06 03:21:03;;;;;;;27.05;18.27;;;7.10;99.90;;;;;;5034912;28;20358;-71
2022/05/06 03:23:28;;;;;;;26.95;18.25;;;7.00;99.90;;;;;;5034928;28;20037;-70
2022/05/06 03:25:54;;;;;;;33.08;17.73;;;7.10;99.90;;;;;;5035136;28;20147;-71
2022/05/06 03:28:20;;;;;;;30.00;19.33;;;7.00;99.90;;;;;;5034919;28;20046;-70
2022/05/06 03:30:45;;;;;;;28.30;17.35;;;7.00;99.90;;;;;;5036195;28;20123;-70
2022/05/06 03:33:14;;;;;;;27.67;18.33;;;7.00;99.90;;;;;;5039138;28;20055;-71
2022/05/06 03:35:40;;;;;;;28.58;17.77;;;7.00;99.90;;;;;;5039316;28;20049;-70
2022/05/06 03:38:06;;;;;;;28.65;18.48;;;7.00;99.90;;;;;;5039042;28;20057;-71
2022/05/06 03:40:33;;;;;;;28.60;18.67;;;7.00;99.90;;;;;;5039285;28;20033;-71
2022/05/06 03:43:00;;;;;;;32.50;20.05;;;6.90;99.90;;;;;;5038860;28;20046;-71
2022/05/06 03:45:25;;;;;;;34.47;19.02;;;6.90;99.90;;;;;;5038910;28;20042;-70
2022/05/06 03:47:52;;;;;;;33.65;21.00;;;7.00;99.90;;;;;;5038965;28;20057;-71
2022/05/06 03:53:02;;;;;;;36.05;21.75;;;7.00;99.90;;;;;;5038313;28;20133;-72
2022/05/06 03:55:28;;;;;;;70.53;23.83;;;7.10;99.90;;;;;;5038536;28;20080;-71
2022/05/06 03:57:54;;;;;;;48.92;27.35;;;7.20;99.90;;;;;;5038358;28;20037;-70
2022/05/06 04:00:20;;;;;;;195.95;34.40;;;7.30;99.90;;;;;;5035707;28;20060;-70
2022/05/06 04:02:46;;;;;;;167.38;35.05;;;7.50;99.90;;;;;;5038588;28;20068;-71
2022/05/06 04:05:12;;;;;;;79.07;32.47;;;7.50;99.90;;;;;;5038807;28;20042;-71
2022/05/06 04:07:38;;;;;;;65.30;31.92;;;7.60;99.90;;;;;;5038204;28;20099;-71
2022/05/06 04:10:04;;;;;;;128.07;32.45;;;7.60;99.90;;;;;;5004145;28;20049;-71
2022/05/06 04:12:30;;;;;;;154.85;35.10;;;7.80;99.90;;;;;;5038500;28;20045;-71
2022/05/06 04:14:55;;;;;;;150.10;34.83;;;7.80;99.90;;;;;;5038152;28;20046;-71
2022/05/06 04:17:21;;;;;;;299.80;37.45;;;7.90;99.90;;;;;;5020754;28;20053;-71
2022/05/06 04:25:16;;;;;;;168.10;32.10;;;8.00;99.90;;;;;;5037961;28;20378;-70
2022/05/06 04:27:44;;;;;;;130.88;33.88;;;8.10;99.90;;;;;;5037801;28;20048;-71
2022/05/06 04:30:11;;;;;;;175.60;32.25;;;8.20;99.90;;;;;;5021135;28;20064;-71
2022/05/06 04:32:37;;;;;;;175.40;28.48;;;8.20;99.90;;;;;;5037767;28;20056;-71
2022/05/06 04:35:05;;;;;;;162.57;28.42;;;8.20;99.90;;;;;;5037978;28;20049;-70
2022/05/06 04:37:32;;;;;;;178.73;29.48;;;8.20;99.90;;;;;;5004433;28;20037;-71
2022/05/06 04:39:58;;;;;;;53.60;27.08;;;8.30;99.90;;;;;;5037737;28;20041;-71
2022/05/06 04:42:24;;;;;;;72.97;25.27;;;8.20;99.90;;;;;;5019904;28;20056;-71
2022/05/06 04:44:50;;;;;;;108.05;26.13;;;8.30;99.90;;;;;;5037885;28;20041;-71
2022/05/06 04:47:15;;;;;;;66.50;25.40;;;8.30;99.90;;;;;;5037364;28;20060;-71
2022/05/06 04:49:41;;;;;;;136.40;25.83;;;8.30;99.90;;;;;;5037312;28;20041;-71
2022/05/06 04:52:07;;;;;;;105.47;24.17;;;8.30;99.90;;;;;;5037532;28;20053;-71
2022/05/06 04:54:32;;;;;;;153.13;24.88;;;8.30;99.90;;;;;;5037424;28;20045;-70
2022/05/06 04:56:58;;;;;;;165.05;26.38;;;8.40;99.90;;;;;;5019871;28;20573;-72
2022/05/06 04:59:23;;;;;;;115.70;24.08;;;8.30;99.90;;;;;;5020325;28;20057;-71
2022/05/06 05:01:49;;;;;;;88.95;21.98;;;8.40;99.90;;;;;;5037255;28;20361;-72
2022/05/06 05:04:15;;;;;;;70.13;21.05;;;8.60;99.90;;;;;;5037804;28;20056;-72
2022/05/06 05:06:41;;;;;;;95.63;23.02;;;8.60;99.90;;;;;;5037566;28;20049;-70
2022/05/06 05:09:06;;;;;;;54.22;21.10;;;8.60;99.90;;;;;;5019714;28;20049;-70
2022/05/06 05:11:34;;;;;;;73.68;21.48;;;8.70;99.90;;;;;;5037180;28;20461;-71
2022/05/06 05:14:02;;;;;;;67.82;22.30;;;8.70;99.90;;;;;;5036879;28;20133;-70
2022/05/06 05:16:31;;;;;;;40.78;21.20;;;8.80;99.90;;;;;;5036925;28;20041;-71
2022/05/06 05:18:56;;;;;;;43.03;21.50;;;8.90;99.90;;;;;;5019430;28;20365;-71
2022/05/06 05:21:22;;;;;;;33.00;21.55;;;9.00;99.90;;;;;;5037390;28;20136;-71
2022/05/06 05:23:48;;;;;;;48.30;22.83;;;9.00;99.90;;;;;;5037209;28;20454;-70
2022/05/06 05:26:13;;;;;;;41.67;22.02;;;9.10;99.90;;;;;;5037117;28;20084;-71
2022/05/06 05:28:39;;;;;;;48.42;24.27;;;9.10;99.90;;;;;;5019369;28;20355;-71
2022/05/06 05:31:04;;;;;;;32.58;22.48;;;9.10;99.90;;;;;;5036564;28;20049;-71
2022/05/06 05:33:30;;;;;;;42.13;22.88;;;9.10;99.90;;;;;;5036785;28;20046;-71
2022/05/06 05:35:56;;;;;;;34.42;21.65;;;9.20;99.90;;;;;;5019202;28;20458;-71
2022/05/06 05:38:21;;;;;;;34.35;20.55;;;9.20;99.90;;;;;;5036869;28;20049;-71
2022/05/06 05:40:47;;;;;;;46.55;21.05;;;9.20;99.90;;;;;;5036479;28;20068;-71
2022/05/06 05:48:41;;;;;;;66.78;20.95;;;9.20;99.90;;;;;;5036621;28;20054;-71
2022/05/06 05:51:08;;;;;;;45.95;20.65;;;9.20;99.90;;;;;;5036225;28;20462;-70
2022/05/06 05:53:33;;;;;;;58.10;22.02;;;9.20;99.90;;;;;;5035966;28;20064;-72
2022/05/06 05:55:59;;;;;;;35.15;20.60;;;9.30;99.90;;;;;;5036305;28;20049;-72
2022/05/06 05:58:25;;;;;;;36.50;19.88;;;9.50;99.90;;;;;;5036334;28;20148;-70
2022/05/06 06:00:51;;;;;;;68.30;23.42;;;9.80;99.90;;;;;;5036478;28;20042;-72
2022/05/06 06:03:16;;;;;;;59.75;24.10;;;10.00;99.90;;;;;;5036049;28;20053;-72
2022/05/06 06:05:42;;;;;;;36.45;21.50;;;10.20;99.90;;;;;;5036109;28;20049;-71
2022/05/06 06:08:07;;;;;;;35.85;21.85;;;10.50;99.90;;;;;;5036119;28;20049;-72
2022/05/06 06:10:33;;;;;;;76.30;22.38;;;10.60;99.90;;;;;;5019316;28;20122;-72
2022/05/06 06:13:01;;;;;;;42.55;22.17;;;10.60;99.90;;;;;;5035726;28;20045;-71
2022/05/06 06:15:26;;;;;;;37.00;21.17;;;10.50;99.90;;;;;;5035761;28;20446;-71
2022/05/06 06:17:52;;;;;;;37.53;21.63;;;10.60;99.90;;;;;;5036044;28;20042;-71
2022/05/06 06:20:18;;;;;;;35.20;21.05;;;10.50;99.90;;;;;;5036031;28;20049;-71
2022/05/06 06:22:44;;;;;;;36.67;22.08;;;10.60;99.90;;;;;;5036078;28;20300;-71
2022/05/06 06:25:10;;;;;;;35.22;22.65;;;10.70;99.90;;;;;;5035596;28;20136;-72
2022/05/06 06:27:35;;;;;;;43.25;22.92;;;10.70;99.90;;;;;;5035656;28;20370;-72
2022/05/06 06:30:05;;;;;;;33.67;22.40;;;10.60;99.90;;;;;;5035833;28;20041;-72
2022/05/06 06:32:30;;;;;;;33.90;22.58;;;10.70;99.90;;;;;;5018866;28;20097;-72
2022/05/06 06:34:56;;;;;;;40.15;24.90;;;10.60;99.90;;;;;;5035461;28;20132;-72
2022/05/06 06:37:22;;;;;;;42.60;26.10;;;10.60;99.90;;;;;;5035259;28;20060;-72
2022/05/06 06:39:48;;;;;;;41.03;25.25;;;10.60;99.90;;;;;;5035325;28;20041;-72
2022/05/06 06:42:14;;;;;;;40.92;25.10;;;10.70;99.90;;;;;;5035365;28;20128;-72
2022/05/06 06:44:39;;;;;;;37.03;24.40;;;10.70;99.90;;;;;;5035395;28;20453;-72
2022/05/06 06:47:09;;;;;;;39.80;26.20;;;10.70;99.90;;;;;;5035320;28;20056;-71
2022/05/06 06:49:34;;;;;;;41.95;27.80;;;10.80;99.90;;;;;;4984217;28;20499;-71
2022/05/06 06:52:00;;;;;;;36.50;24.17;;;10.90;99.90;;;;;;5031814;28;20045;-72
2022/05/06 06:54:26;;;;;;;39.45;27.25;;;11.00;99.90;;;;;;5037273;28;20122;-72
2022/05/06 06:56:51;;;;;;;34.42;24.42;;;11.20;99.90;;;;;;5035369;28;20094;-72
2022/05/06 06:59:17;;;;;;;35.95;25.05;;;11.30;99.90;;;;;;5017658;28;20060;-72
2022/05/06 07:01:42;;;;;;;38.10;24.63;;;11.50;99.90;;;;;;5035249;28;20065;-72
2022/05/06 07:04:08;;;;;;;28.17;19.85;;;11.60;99.90;;;;;;5035300;28;20041;-73
2022/05/06 07:12:02;;;;;;;33.85;23.58;;;12.30;99.90;;;;;;5034780;28;20057;-72
2022/05/06 07:14:28;;;;;;;34.40;23.20;;;12.40;99.90;;;;;;5035169;28;20133;-72
2022/05/06 07:16:55;;;;;;;34.42;21.95;;;12.60;99.90;;;;;;5034904;28;20210;-72
2022/05/06 07:19:21;;;;;;;32.30;23.20;;;12.80;99.90;;;;;;5034813;28;20045;-73
2022/05/06 07:21:49;;;;;;;33.17;22.45;;;12.80;99.90;;;;;;5035127;28;20094;-73
2022/05/06 07:24:16;;;;;;;30.75;22.58;;;12.90;99.90;;;;;;5017674;28;20136;-72
2022/05/06 07:26:41;;;;;;;31.75;21.42;;;13.00;99.90;;;;;;5035018;28;20049;-73
2022/05/06 07:29:07;;;;;;;32.45;22.67;;;13.20;99.90;;;;;;5034982;28;20049;-72
2022/05/06 07:31:32;;;;;;;32.85;22.92;;;13.30;99.90;;;;;;5018261;28;20050;-72
2022/05/06 07:33:58;;;;;;;33.70;22.42;;;13.40;99.90;;;;;;5034657;28;20124;-73
2022/05/06 07:36:24;;;;;;;34.80;24.15;;;13.60;99.90;;;;;;5034492;28;20138;-73
2022/05/06 07:38:52;;;;;;;32.92;22.55;;;13.70;99.90;;;;;;5035377;28;20510;-72
2022/05/06 07:41:19;;;;;;;35.20;24.63;;;13.70;99.90;;;;;;5034841;28;20159;-72
2022/05/06 07:43:44;;;;;;;34.80;23.50;;;13.80;99.90;;;;;;5018084;28;20123;-72
2022/05/06 07:46:10;;;;;;;32.90;22.20;;;14.00;99.90;;;;;;5034603;28;20462;-73
2022/05/06 07:48:37;;;;;;;36.88;23.45;;;14.10;99.90;;;;;;5034659;28;20037;-72
2022/05/06 07:51:04;;;;;;;35.83;23.73;;;14.10;99.90;;;;;;5034543;28;20054;-72
2022/05/06 07:53:29;;;;;;;30.42;22.10;;;14.20;99.90;;;;;;5034445;28;20058;-72
2022/05/06 07:55:55;;;;;;;36.30;22.42;;;14.30;99.90;;;;;;5034726;28;20115;-72
2022/05/06 07:58:20;;;;;;;36.22;22.65;;;14.50;99.90;;;;;;5034699;28;20099;-73
2022/05/06 08:00:46;;;;;;;33.45;22.65;;;14.70;99.90;;;;;;5034927;28;20037;-72
2022/05/06 08:05:59;;;;;;;35.33;22.70;;;14.90;99.90;;;;;;5034622;28;20381;-73
2022/05/06 08:08:29;;;;;;;32.55;21.90;;;14.90;99.90;;;;;;5034742;28;20508;-73
2022/05/06 08:10:55;;;;;;;33.53;22.85;;;15.10;99.90;;;;;;5034412;28;20119;-70
2022/05/06 08:13:21;;;;;;;28.05;19.20;;;15.30;99.90;;;;;;5034811;28;20347;-72
2022/05/06 08:15:48;;;;;;;27.70;19.40;;;15.60;99.90;;;;;;5034259;28;20087;-71
2022/05/06 08:18:14;;;;;;;26.73;18.85;;;16.10;99.90;;;;;;5038433;28;20114;-71
2022/05/06 08:20:40;;;;;;;24.88;17.60;;;17.30;99.90;;;;;;5020982;28;20399;-72
2022/05/06 08:23:07;;;;;;;24.15;16.10;;;17.90;99.90;;;;;;5038081;28;20104;-71
2022/05/06 08:25:32;;;;;;;24.50;17.15;;;18.20;99.90;;;;;;5038278;28;20041;-72
2022/05/06 08:27:58;;;;;;;18.88;14.45;;;19.10;99.90;;;;;;5037786;28;20056;-71
2022/05/06 08:30:24;;;;;;;31.77;16.50;;;19.20;99.90;;;;;;5037720;28;20045;-72
2022/05/06 08:32:51;;;;;;;21.50;14.93;;;19.30;99.90;;;;;;5037716;28;20086;-71
2022/05/06 08:35:17;;;;;;;15.73;13.32;;;19.40;99.90;;;;;;5038009;28;20037;-72
2022/05/06 08:37:44;;;;;;;15.77;11.90;;;20.20;99.90;;;;;;5037967;28;20056;-72
2022/05/06 08:40:18;;;;;;;14.30;11.02;;;20.70;99.90;;;;;;5037738;28;20050;-73
2022/05/06 08:42:44;;;;;;;15.63;12.52;;;20.80;99.90;;;;;;5037662;28;20041;-72
2022/05/06 08:50:51;;;;;;;15.88;11.70;;;20.00;99.90;;;;;;5020148;28;20513;-71
2022/05/06 08:53:16;;;;;;;15.00;11.02;;;19.70;99.90;;;;;;5037276;28;20119;-72
2022/05/06 08:55:42;;;;;;;15.40;10.93;;;19.40;99.90;;;;;;5037897;28;20084;-72
2022/05/06 08:58:08;;;;;;;14.40;11.63;;;19.00;99.90;;;;;;5037480;28;20045;-71
2022/05/06 09:00:34;;;;;;;14.13;11.13;;;18.60;99.90;;;;;;5037689;28;20461;-72
2022/05/06 09:02:59;;;;;;;16.25;10.57;;;18.40;99.90;;;;;;5037354;28;20077;-73
2022/05/06 09:05:25;;;;;;;13.43;10.07;;;18.40;99.90;;;;;;5037487;28;20049;-71
2022/05/06 09:07:59;;;;;;;13.77;10.75;;;18.40;99.90;;;;;;5037202;28;20099;-72
2022/05/06 09:10:26;;;;;;;14.40;9.38;;;18.70;99.90;;;;;;5037058;28;20476;-72
2022/05/06 09:13:00;;;;;;;11.52;9.52;;;18.80;99.90;;;;;;5037373;28;20115;-72
2022/05/06 09:18:16;;;;;;;11.48;8.18;;;19.10;99.90;;;;;;5037259;28;20045;-72
2022/05/06 09:20:42;;;;;;;10.23;7.45;;;19.20;99.90;;;;;;5036669;28;20050;-71
2022/05/06 09:23:25;;;;;;;7.90;6.30;;;19.50;99.90;;;;;;5037079;28;20140;-71
2022/05/06 09:25:55;;;;;;;9.38;6.88;;;19.70;99.90;;;;;;5036928;28;20045;-72
2022/05/06 09:28:32;;;;;;;9.35;6.93;;;19.60;99.90;;;;;;5036100;28;20513;-71
2022/05/06 09:31:01;;;;;;;7.75;6.03;;;19.70;99.90;;;;;;5036629;28;20512;-72
2022/05/06 09:33:30;;;;;;;9.88;6.78;;;19.50;99.90;;;;;;5037010;28;20419;-72
2022/05/06 09:35:56;;;;;;;8.73;7.20;;;19.50;99.90;;;;;;5036911;28;20050;-72
2022/05/06 09:38:24;;;;;;;8.52;5.50;;;19.60;99.90;;;;;;5036718;28;20041;-72
2022/05/06 09:40:50;;;;;;;9.00;6.28;;;19.80;99.90;;;;;;5036432;28;20052;-72
2022/05/06 09:43:17;;;;;;;7.13;5.70;;;20.20;99.90;;;;;;5036527;28;20132;-72
2022/05/06 09:45:44;;;;;;;8.38;6.30;;;20.10;99.90;;;;;;5036658;28;20055;-71
2022/05/06 09:48:11;;;;;;;6.60;5.72;;;19.90;99.90;;;;;;5036490;28;20049;-72
2022/05/06 09:50:45;;;;;;;6.90;5.63;;;20.10;99.90;;;;;;5036633;28;20033;-72
2022/05/06 09:53:13;;;;;;;7.60;4.70;;;20.10;99.90;;;;;;5035898;28;20049;-72
2022/05/06 09:55:44;;;;;;;7.60;4.93;;;20.10;99.90;;;;;;5019103;28;20390;-71
2022/05/06 09:58:11;;;;;;;6.30;4.30;;;20.00;99.90;;;;;;5018950;28;20045;-72
2022/05/06 10:00:40;;;;;;;7.22;4.18;;;20.10;99.90;;;;;;5019130;28;20041;-71
2022/05/06 10:03:06;;;;;;;5.90;4.20;;;19.90;99.90;;;;;;5036289;28;20107;-72
2022/05/06 10:05:34;;;;;;;6.68;4.05;;;19.70;99.90;;;;;;5035957;28;20126;-72
2022/05/06 10:08:08;;;;;;;5.55;4.30;;;19.70;99.90;;;;;;5035930;28;20046;-73
2022/05/06 10:10:39;;;;;;;5.65;4.00;;;19.70;99.90;;;;;;5018785;28;20132;-73
2022/05/06 10:13:12;;;;;;;6.18;3.97;;;20.00;99.90;;;;;;5036093;28;20092;-72
2022/05/06 10:15:38;;;;;;;4.90;4.07;;;20.10;99.90;;;;;;5019393;28;20049;-72
2022/05/06 10:18:07;;;;;;;8.75;4.25;;;20.20;99.90;;;;;;5036474;28;20033;-72
2022/05/06 10:20:38;;;;;;;8.13;4.10;;;20.40;99.90;;;;;;5035736;28;20045;-72
2022/05/06 10:23:09;;;;;;;6.50;4.13;;;20.50;99.90;;;;;;5036479;28;20049;-72
2022/05/06 10:25:41;;;;;;;5.68;3.85;;;20.60;99.90;;;;;;5035754;28;20068;-72
2022/05/06 10:34:27;;;;;;;5.82;4.03;;;21.10;99.90;;;;;;5036035;28;20057;-73
2022/05/06 10:36:55;;;;;;;4.88;4.25;;;21.20;99.90;;;;;;5035803;28;20050;-72
2022/05/06 10:39:24;;;;;;;4.88;3.42;;;21.40;99.90;;;;;;5034873;28;20350;-73
2022/05/06 10:42:10;;;;;;;5.18;3.55;;;21.60;99.90;;;;;;5017738;28;20061;-72
2022/05/06 10:44:48;;;;;;;4.95;3.25;;;21.50;99.90;;;;;;5036290;28;20350;-72
2022/05/06 10:47:14;;;;;;;4.97;3.80;;;21.60;99.90;;;;;;5035608;28;20085;-72
2022/05/06 10:49:39;;;;;;;7.07;4.55;;;21.70;99.90;;;;;;5035399;28;20092;-72
2022/05/06 10:52:14;;;;;;;4.82;3.97;;;21.80;99.90;;;;;;5035207;28;20057;-71
2022/05/06 10:54:40;;;;;;;5.68;3.97;;;21.90;99.90;;;;;;5035825;28;20057;-72
2022/05/06 10:57:07;;;;;;;5.45;4.13;;;21.70;99.90;;;;;;5035497;28;20045;-72
2022/05/06 10:59:53;;;;;;;7.22;4.18;;;21.60;99.30;;;;;;5035375;28;20434;-72
2022/05/06 11:02:25;;;;;;;4.93;3.60;;;21.30;99.00;;;;;;5035483;28;20048;-72
2022/05/06 11:04:55;;;;;;;6.43;3.90;;;21.40;99.90;;;;;;5032063;28;20442;-72
2022/05/06 11:07:21;;;;;;;5.57;3.95;;;21.60;99.90;;;;;;5035204;28;20038;-72
2022/05/06 11:09:47;;;;;;;7.13;4.20;;;21.90;98.10;;;;;;5035129;28;20049;-73
2022/05/06 11:12:33;;;;;;;6.50;4.43;;;22.10;98.90;;;;;;5035278;28;20059;-73
2022/05/06 11:15:02;;;;;;;4.88;3.40;;;22.20;97.80;;;;;;5035444;28;20125;-72
2022/05/06 11:17:27;;;;;;;4.80;3.90;;;22.20;97.30;;;;;;5034871;28;20053;-72
2022/05/06 11:19:54;;;;;;;4.43;3.45;;;21.90;95.60;;;;;;5017443;28;20045;-72
2022/05/06 11:22:23;;;;;;;5.00;3.63;;;21.70;96.50;;;;;;5001401;28;20053;-71
2022/05/06 11:24:54;;;;;;;4.40;2.90;;;21.70;97.10;;;;;;5018250;28;20096;-72
2022/05/06 11:27:20;;;;;;;5.43;3.22;;;21.60;96.60;;;;;;5017589;28;20053;-72
2022/05/06 11:29:51;;;;;;;5.00;2.53;;;21.60;96.10;;;;;;5034920;28;20049;-72
2022/05/06 11:32:17;;;;;;;4.85;2.47;;;21.80;96.10;;;;;;5035104;28;20107;-73
2022/05/06 11:34:54;;;;;;;3.55;2.33;;;21.80;94.80;;;;;;5035089;28;20362;-72
2022/05/06 11:37:24;;;;;;;4.32;2.30;;;21.90;92.90;;;;;;5034977;28;20075;-72
2022/05/06 11:39:50;;;;;;;4.20;2.20;;;21.90;93.40;;;;;;5035018;28;20037;-72
2022/05/06 11:42:23;;;;;;;3.95;2.10;;;22.10;93.80;;;;;;5034704;28;20051;-73
2022/05/06 11:47:42;;;;;;;4.55;2.13;;;21.90;91.70;;;;;;5034899;28;20461;-72
2022/05/06 11:50:09;;;;;;;4.32;2.17;;;21.60;92.30;;;;;;5034503;28;20081;-72
2022/05/06 11:52:38;;;;;;;4.00;2.60;;;21.50;92.60;;;;;;5037429;28;20065;-72
2022/05/06 11:55:06;;;;;;;5.50;2.47;;;21.70;93.10;;;;;;5020201;28;20060;-72
2022/05/06 11:57:34;;;;;;;3.03;2.10;;;21.90;93.30;;;;;;5020951;28;20111;-72
2022/05/06 12:00:04;;;;;;;3.60;2.30;;;22.20;93.70;;;;;;5038769;28;20041;-72
2022/05/06 12:02:30;;;;;;;4.30;1.90;;;22.30;93.40;;;;;;4984604;28;20162;-71
2022/05/06 12:04:56;;;;;;;2.63;1.58;;;22.20;92.70;;;;;;5038200;28;20041;-71
2022/05/06 12:07:21;;;;;;;4.47;2.33;;;22.40;93.60;;;;;;5038257;28;20132;-71
2022/05/06 12:09:47;;;;;;;4.80;2.25;;;22.60;92.40;;;;;;5038204;28;20056;-72
2022/05/06 12:12:13;;;;;;;3.25;1.70;;;22.50;92.60;;;;;;5038812;28;20195;-72
2022/05/06 12:14:39;;;;;;;5.40;2.13;;;22.70;92.90;;;;;;5038466;28;20072;-72
2022/05/06 12:17:10;;;;;;;4.05;2.40;;;22.60;92.40;;;;;;5003414;28;20531;-72
2022/05/06 12:19:38;;;;;;;5.90;2.50;;;22.70;92.10;;;;;;5038321;28;20060;-73
2022/05/06 12:22:12;;;;;;;4.53;1.85;;;22.80;93.00;;;;;;5038136;28;20092;-71
2022/05/06 12:24:46;;;;;;;6.60;2.35;;;23.00;93.60;;;;;;5038157;28;20046;-71
2022/05/06 12:27:12;;;;;;;3.75;2.20;;;23.20;92.20;;;;;;5037977;28;20438;-73
2022/05/06 12:29:39;;;;;;;3.58;2.15;;;23.20;92.70;;;;;;5037825;28;20414;-72
2022/05/06 12:32:05;;;;;;;3.40;2.30;;;23.30;92.90;;;;;;5038263;28;20089;-71
2022/05/06 12:34:32;;;;;;;3.42;2.40;;;23.30;92.50;;;;;;5020204;28;20139;-72
2022/05/06 12:37:15;;;;;;;6.82;2.25;;;23.20;91.40;;;;;;5020275;28;20045;-71
2022/05/06 12:39:41;;;;;;;;;;;22.70;90.60;;;;;;5038428;28;20045;-71
2022/05/06 12:42:18;;;;;;;2.75;1.60;;;22.50;91.80;;;;;;5037592;28;19975;-72
2022/05/06 12:44:44;;;;;;;5.47;1.63;;;22.70;93.10;;;;;;5020600;28;20361;-71
2022/05/06 12:50:03;;;;;;;5.25;1.90;;;23.10;92.70;;;;;;5037603;28;20049;-71
2022/05/06 12:52:31;;;;;;;4.57;1.80;;;23.40;93.00;;;;;;5037508;28;20053;-72
2022/05/06 12:54:57;;;;;;;3.25;1.60;;;23.70;92.60;;;;;;5037469;28;20057;-71
2022/05/06 12:57:24;;;;;;;7.13;1.63;;;23.80;91.70;;;;;;5037326;28;20041;-71
2022/05/06 12:59:50;;;;;;;2.40;1.35;;;23.80;91.00;;;;;;5020222;28;20401;-71
2022/05/06 13:02:15;;;;;;;4.03;1.90;;;23.70;91.30;;;;;;5037428;28;20041;-72
2022/05/06 13:04:41;;;;;;;4.07;1.70;;;23.40;91.10;;;;;;5036691;28;20132;-71
2022/05/06 13:07:06;;;;;;;3.72;1.90;;;22.90;91.20;;;;;;5037522;28;20108;-72
2022/05/06 13:09:32;;;;;;;3.55;1.60;;;22.80;91.90;;;;;;5036995;28;20116;-71
2022/05/06 13:11:57;;;;;;;4.55;1.88;;;22.70;92.60;;;;;;5037400;28;20128;-72
2022/05/06 13:14:23;;;;;;;3.17;1.60;;;22.70;93.20;;;;;;5037492;28;20045;-71
2022/05/06 13:16:51;;;;;;;4.88;1.75;;;22.50;93.20;;;;;;5036998;28;20091;-72
2022/05/06 13:19:16;;;;;;;7.40;2.00;;;22.60;93.50;;;;;;5037204;28;20053;-71
2022/05/06 13:21:42;;;;;;;4.68;1.80;;;22.50;93.10;;;;;;5037111;28;20103;-72
2022/05/06 13:24:08;;;;;;;9.20;2.00;;;22.60;93.40;;;;;;5036946;28;20441;-72